Hayward, Wisconsin
Current Conditions -  °F | °C
As of 7:53 PM on Tuesday 25 Nov 2014 (Local Time) from KHYR Reporting Station
Overcast Overcast  
Wind Chill: 15°   Ceiling: 6000
Heat Index: 15°   Visibility: NA
Dew Point: 11°   Wind: 0mph
Humidity: 84%   Direction: NA
Pressure: 30.03"   Gusts: NA
Location:  46.01°N, 91.48°W
Report Text: KHYR 260153Z AUTO 00000KT OVC060 M09/M12 A3003 RMK AO2 SLP197 T10941117 $
Loading
Personal Weather Stations






























Interactive Weather Map New forecast layout! Learn more

10-Day Weather Forecast

Advertisements
Track Severe Weather on mobile